sensor_id;sensor_type;location;lat;lon;timestamp;temperature;humidity
20750;DHT22;10535;50.664;4.564;2022-10-31T00:00:52;14.40;99.90
20750;DHT22;10535;50.664;4.564;2022-10-31T00:03:18;14.40;99.90
20750;DHT22;10535;50.664;4.564;2022-10-31T00:05:47;14.50;99.90
20750;DHT22;10535;50.664;4.564;2022-10-31T00:08:13;14.30;99.90
20750;DHT22;10535;50.664;4.564;2022-10-31T00:10:39;14.30;99.90
20750;DHT22;10535;50.664;4.564;2022-10-31T00:13:05;14.30;99.90
20750;DHT22;10535;50.664;4.564;2022-10-31T00:15:34;14.30;99.90
20750;DHT22;10535;50.664;4.564;2022-10-31T00:18:00;14.20;99.90
20750;DHT22;10535;50.664;4.564;2022-10-31T00:20:27;14.30;99.90
20750;DHT22;10535;50.664;4.564;2022-10-31T00:22:52;14.20;99.90
20750;DHT22;10535;50.664;4.564;2022-10-31T00:25:18;14.30;99.90
20750;DHT22;10535;50.664;4.564;2022-10-31T00:27:45;14.40;99.90
20750;DHT22;10535;50.664;4.564;2022-10-31T00:30:11;14.20;99.90
20750;DHT22;10535;50.664;4.564;2022-10-31T00:32:37;14.30;99.90
20750;DHT22;10535;50.664;4.564;2022-10-31T00:35:02;14.30;99.90
20750;DHT22;10535;50.664;4.564;2022-10-31T00:37:28;14.20;99.90
20750;DHT22;10535;50.664;4.564;2022-10-31T00:39:54;14.20;99.90
20750;DHT22;10535;50.664;4.564;2022-10-31T00:42:19;14.20;99.90
20750;DHT22;10535;50.664;4.564;2022-10-31T00:44:45;14.10;99.90
20750;DHT22;10535;50.664;4.564;2022-10-31T00:47:10;14.10;99.90
20750;DHT22;10535;50.664;4.564;2022-10-31T00:49:36;14.00;99.90
20750;DHT22;10535;50.664;4.564;2022-10-31T00:52:01;14.10;99.90
20750;DHT22;10535;50.664;4.564;2022-10-31T00:54:28;14.00;99.90
20750;DHT22;10535;50.664;4.564;2022-10-31T00:56:56;14.00;99.90
20750;DHT22;10535;50.664;4.564;2022-10-31T00:59:22;14.00;99.90
20750;DHT22;10535;50.664;4.564;2022-10-31T01:01:47;14.00;99.90
20750;DHT22;10535;50.664;4.564;2022-10-31T01:04:13;14.00;99.90
20750;DHT22;10535;50.664;4.564;2022-10-31T01:06:39;13.90;99.90
20750;DHT22;10535;50.664;4.564;2022-10-31T01:09:04;13.90;99.90
20750;DHT22;10535;50.664;4.564;2022-10-31T01:11:30;13.90;99.90
20750;DHT22;10535;50.664;4.564;2022-10-31T01:13:55;13.80;99.90
20750;DHT22;10535;50.664;4.564;2022-10-31T01:16:25;13.70;99.90
20750;DHT22;10535;50.664;4.564;2022-10-31T01:18:52;13.80;99.90
20750;DHT22;10535;50.664;4.564;2022-10-31T01:21:23;13.80;99.90
20750;DHT22;10535;50.664;4.564;2022-10-31T01:23:50;13.80;99.90
20750;DHT22;10535;50.664;4.564;2022-10-31T01:26:19;13.80;99.90
20750;DHT22;10535;50.664;4.564;2022-10-31T01:28:51;13.80;99.90
20750;DHT22;10535;50.664;4.564;2022-10-31T01:31:19;13.90;99.90
20750;DHT22;10535;50.664;4.564;2022-10-31T01:33:46;13.80;99.90
20750;DHT22;10535;50.664;4.564;2022-10-31T01:38:38;13.70;99.90
20750;DHT22;10535;50.664;4.564;2022-10-31T01:41:06;13.60;99.90
20750;DHT22;10535;50.664;4.564;2022-10-31T01:43:50;13.60;99.90
20750;DHT22;10535;50.664;4.564;2022-10-31T01:46:39;13.60;99.90
20750;DHT22;10535;50.664;4.564;2022-10-31T01:49:13;13.50;99.90
20750;DHT22;10535;50.664;4.564;2022-10-31T01:51:46;13.60;99.90
20750;DHT22;10535;50.664;4.564;2022-10-31T01:54:16;13.60;99.90
20750;DHT22;10535;50.664;4.564;2022-10-31T01:56:48;13.50;99.90
20750;DHT22;10535;50.664;4.564;2022-10-31T01:59:19;13.40;99.90
20750;DHT22;10535;50.664;4.564;2022-10-31T02:01:47;13.30;99.90
20750;DHT22;10535;50.664;4.564;2022-10-31T02:04:15;13.20;99.90
20750;DHT22;10535;50.664;4.564;2022-10-31T02:06:55;13.20;99.90
20750;DHT22;10535;50.664;4.564;2022-10-31T02:09:24;13.10;99.90
20750;DHT22;10535;50.664;4.564;2022-10-31T02:11:56;13.10;99.90
20750;DHT22;10535;50.664;4.564;2022-10-31T02:14:24;13.00;99.90
20750;DHT22;10535;50.664;4.564;2022-10-31T02:16:50;13.10;99.90
20750;DHT22;10535;50.664;4.564;2022-10-31T02:19:25;13.00;99.90
20750;DHT22;10535;50.664;4.564;2022-10-31T02:21:59;13.00;99.90
20750;DHT22;10535;50.664;4.564;2022-10-31T02:30:22;12.90;99.90
20750;DHT22;10535;50.664;4.564;2022-10-31T02:40:44;12.90;99.90
20750;DHT22;10535;50.664;4.564;2022-10-31T02:46:19;13.00;99.90
20750;DHT22;10535;50.664;4.564;2022-10-31T02:48:53;13.10;99.90
20750;DHT22;10535;50.664;4.564;2022-10-31T02:51:21;13.20;99.90
20750;DHT22;10535;50.664;4.564;2022-10-31T02:53:46;13.20;99.90
20750;DHT22;10535;50.664;4.564;2022-10-31T02:56:18;13.30;99.90
20750;DHT22;10535;50.664;4.564;2022-10-31T02:59:03;13.10;99.90
20750;DHT22;10535;50.664;4.564;2022-10-31T03:01:45;13.30;99.90
20750;DHT22;10535;50.664;4.564;2022-10-31T03:04:20;13.00;99.90
20750;DHT22;10535;50.664;4.564;2022-10-31T03:06:56;13.00;99.90
20750;DHT22;10535;50.664;4.564;2022-10-31T03:09:35;13.20;99.90
20750;DHT22;10535;50.664;4.564;2022-10-31T03:12:11;13.10;99.90
20750;DHT22;10535;50.664;4.564;2022-10-31T03:14:43;13.20;99.90
20750;DHT22;10535;50.664;4.564;2022-10-31T03:17:23;13.10;99.90
20750;DHT22;10535;50.664;4.564;2022-10-31T03:19:53;13.10;99.90
20750;DHT22;10535;50.664;4.564;2022-10-31T03:22:25;13.10;99.90
20750;DHT22;10535;50.664;4.564;2022-10-31T03:24:52;13.20;99.90
20750;DHT22;10535;50.664;4.564;2022-10-31T03:27:23;13.20;99.90
20750;DHT22;10535;50.664;4.564;2022-10-31T03:29:51;13.10;99.90
20750;DHT22;10535;50.664;4.564;2022-10-31T03:32:31;13.00;99.90
20750;DHT22;10535;50.664;4.564;2022-10-31T03:35:00;13.00;99.90
20750;DHT22;10535;50.664;4.564;2022-10-31T03:37:28;12.90;99.90
20750;DHT22;10535;50.664;4.564;2022-10-31T03:39:56;12.80;99.90
20750;DHT22;10535;50.664;4.564;2022-10-31T03:42:27;12.70;99.90
20750;DHT22;10535;50.664;4.564;2022-10-31T03:45:20;12.70;99.90
20750;DHT22;10535;50.664;4.564;2022-10-31T03:47:52;12.70;99.90
20750;DHT22;10535;50.664;4.564;2022-10-31T03:50:19;12.60;99.90
20750;DHT22;10535;50.664;4.564;2022-10-31T03:53:06;12.70;99.90
20750;DHT22;10535;50.664;4.564;2022-10-31T03:58:04;12.50;99.90
20750;DHT22;10535;50.664;4.564;2022-10-31T04:00:35;12.40;99.90
20750;DHT22;10535;50.664;4.564;2022-10-31T04:03:11;12.40;99.90
20750;DHT22;10535;50.664;4.564;2022-10-31T04:05:40;12.50;99.90
20750;DHT22;10535;50.664;4.564;2022-10-31T04:08:10;12.50;99.90
20750;DHT22;10535;50.664;4.564;2022-10-31T04:10:38;12.40;99.90
20750;DHT22;10535;50.664;4.564;2022-10-31T04:13:10;12.40;99.90
20750;DHT22;10535;50.664;4.564;2022-10-31T04:15:37;12.40;99.90
20750;DHT22;10535;50.664;4.564;2022-10-31T04:18:04;12.50;99.90
20750;DHT22;10535;50.664;4.564;2022-10-31T04:20:35;12.40;99.90
20750;DHT22;10535;50.664;4.564;2022-10-31T04:23:01;12.30;99.90
20750;DHT22;10535;50.664;4.564;2022-10-31T04:25:31;12.40;99.90
20750;DHT22;10535;50.664;4.564;2022-10-31T04:27:58;12.30;99.90
20750;DHT22;10535;50.664;4.564;2022-10-31T04:30:24;12.30;99.90
20750;DHT22;10535;50.664;4.564;2022-10-31T04:32:58;12.40;99.90
20750;DHT22;10535;50.664;4.564;2022-10-31T04:35:28;12.40;99.90
20750;DHT22;10535;50.664;4.564;2022-10-31T04:37:54;12.50;99.90
20750;DHT22;10535;50.664;4.564;2022-10-31T04:40:20;12.50;99.90
20750;DHT22;10535;50.664;4.564;2022-10-31T04:42:45;12.60;99.90
20750;DHT22;10535;50.664;4.564;2022-10-31T04:45:11;12.60;99.90
20750;DHT22;10535;50.664;4.564;2022-10-31T04:47:37;12.60;99.90
20750;DHT22;10535;50.664;4.564;2022-10-31T04:50:02;12.70;99.90
20750;DHT22;10535;50.664;4.564;2022-10-31T04:52:28;12.70;99.90
20750;DHT22;10535;50.664;4.564;2022-10-31T04:54:54;12.60;99.90
20750;DHT22;10535;50.664;4.564;2022-10-31T04:57:19;12.70;99.90
20750;DHT22;10535;50.664;4.564;2022-10-31T04:59:48;12.50;99.90
20750;DHT22;10535;50.664;4.564;2022-10-31T05:02:13;12.60;99.90
20750;DHT22;10535;50.664;4.564;2022-10-31T05:04:42;12.60;99.90
20750;DHT22;10535;50.664;4.564;2022-10-31T05:07:07;12.70;99.90
20750;DHT22;10535;50.664;4.564;2022-10-31T05:09:33;12.70;99.90
20750;DHT22;10535;50.664;4.564;2022-10-31T05:11:58;12.70;99.90
20750;DHT22;10535;50.664;4.564;2022-10-31T05:14:24;12.80;99.90
20750;DHT22;10535;50.664;4.564;2022-10-31T05:16:51;12.70;99.90
20750;DHT22;10535;50.664;4.564;2022-10-31T05:19:16;12.70;99.90
20750;DHT22;10535;50.664;4.564;2022-10-31T05:21:42;12.90;99.90
20750;DHT22;10535;50.664;4.564;2022-10-31T05:24:08;12.70;99.90
20750;DHT22;10535;50.664;4.564;2022-10-31T05:26:33;12.70;99.90
20750;DHT22;10535;50.664;4.564;2022-10-31T05:28:59;12.70;99.90
20750;DHT22;10535;50.664;4.564;2022-10-31T05:31:24;12.70;99.90
20750;DHT22;10535;50.664;4.564;2022-10-31T05:33:50;12.70;99.90
20750;DHT22;10535;50.664;4.564;2022-10-31T05:36:15;12.70;99.90
20750;DHT22;10535;50.664;4.564;2022-10-31T05:38:41;12.70;99.90
20750;DHT22;10535;50.664;4.564;2022-10-31T05:41:07;12.80;99.90
20750;DHT22;10535;50.664;4.564;2022-10-31T05:43:32;12.70;99.90
20750;DHT22;10535;50.664;4.564;2022-10-31T05:45:58;12.70;99.90
20750;DHT22;10535;50.664;4.564;2022-10-31T05:48:23;12.60;99.90
20750;DHT22;10535;50.664;4.564;2022-10-31T05:50:49;12.60;99.90
20750;DHT22;10535;50.664;4.564;2022-10-31T05:53:15;12.50;99.90
20750;DHT22;10535;50.664;4.564;2022-10-31T05:55:42;12.50;99.90
20750;DHT22;10535;50.664;4.564;2022-10-31T05:58:09;12.40;99.90
20750;DHT22;10535;50.664;4.564;2022-10-31T06:00:34;12.40;99.90
20750;DHT22;10535;50.664;4.564;2022-10-31T06:03:03;12.40;99.90
20750;DHT22;10535;50.664;4.564;2022-10-31T06:05:29;12.40;99.90
20750;DHT22;10535;50.664;4.564;2022-10-31T06:07:56;12.50;99.90
20750;DHT22;10535;50.664;4.564;2022-10-31T06:10:21;12.50;99.90
20750;DHT22;10535;50.664;4.564;2022-10-31T06:12:47;12.40;99.90
20750;DHT22;10535;50.664;4.564;2022-10-31T06:15:13;12.40;99.90
20750;DHT22;10535;50.664;4.564;2022-10-31T06:17:39;12.30;99.90
20750;DHT22;10535;50.664;4.564;2022-10-31T06:20:06;12.40;99.90
20750;DHT22;10535;50.664;4.564;2022-10-31T06:22:32;12.60;99.90
20750;DHT22;10535;50.664;4.564;2022-10-31T06:24:58;12.60;99.90
20750;DHT22;10535;50.664;4.564;2022-10-31T06:27:24;12.60;99.90
20750;DHT22;10535;50.664;4.564;2022-10-31T06:29:50;12.60;99.90
20750;DHT22;10535;50.664;4.564;2022-10-31T06:32:16;12.60;99.90
20750;DHT22;10535;50.664;4.564;2022-10-31T06:34:43;12.80;99.90
20750;DHT22;10535;50.664;4.564;2022-10-31T06:37:10;12.70;99.90
20750;DHT22;10535;50.664;4.564;2022-10-31T06:39:36;12.70;99.90
20750;DHT22;10535;50.664;4.564;2022-10-31T06:42:02;12.70;99.90
20750;DHT22;10535;50.664;4.564;2022-10-31T06:44:27;12.70;99.90
20750;DHT22;10535;50.664;4.564;2022-10-31T06:46:53;12.80;99.90
20750;DHT22;10535;50.664;4.564;2022-10-31T06:49:19;12.80;99.90
20750;DHT22;10535;50.664;4.564;2022-10-31T06:51:47;12.90;99.90
20750;DHT22;10535;50.664;4.564;2022-10-31T06:54:13;12.90;99.90
20750;DHT22;10535;50.664;4.564;2022-10-31T06:56:39;13.00;99.90
20750;DHT22;10535;50.664;4.564;2022-10-31T06:59:05;13.10;99.90
20750;DHT22;10535;50.664;4.564;2022-10-31T07:01:30;13.20;99.90
20750;DHT22;10535;50.664;4.564;2022-10-31T07:03:56;13.30;99.90
20750;DHT22;10535;50.664;4.564;2022-10-31T07:06:21;13.20;99.90
20750;DHT22;10535;50.664;4.564;2022-10-31T07:08:47;13.30;99.90
20750;DHT22;10535;50.664;4.564;2022-10-31T07:11:12;13.40;99.90
20750;DHT22;10535;50.664;4.564;2022-10-31T07:13:38;13.30;99.90
20750;DHT22;10535;50.664;4.564;2022-10-31T07:16:05;13.20;99.90
20750;DHT22;10535;50.664;4.564;2022-10-31T07:18:32;13.20;99.90
20750;DHT22;10535;50.664;4.564;2022-10-31T07:20:58;13.60;99.90
20750;DHT22;10535;50.664;4.564;2022-10-31T07:23:23;13.60;99.90
20750;DHT22;10535;50.664;4.564;2022-10-31T07:25:57;13.70;99.90
20750;DHT22;10535;50.664;4.564;2022-10-31T07:28:26;13.70;99.90
20750;DHT22;10535;50.664;4.564;2022-10-31T07:30:56;13.70;99.90
20750;DHT22;10535;50.664;4.564;2022-10-31T07:33:23;13.60;99.90
20750;DHT22;10535;50.664;4.564;2022-10-31T07:35:51;13.60;99.90
20750;DHT22;10535;50.664;4.564;2022-10-31T07:38:41;13.60;99.90
20750;DHT22;10535;50.664;4.564;2022-10-31T07:41:06;13.50;99.90
20750;DHT22;10535;50.664;4.564;2022-10-31T07:43:32;13.70;99.90
20750;DHT22;10535;50.664;4.564;2022-10-31T07:45:57;13.80;99.90
20750;DHT22;10535;50.664;4.564;2022-10-31T07:48:23;13.90;99.90
20750;DHT22;10535;50.664;4.564;2022-10-31T07:50:48;14.20;99.90
20750;DHT22;10535;50.664;4.564;2022-10-31T07:53:15;14.10;99.90
20750;DHT22;10535;50.664;4.564;2022-10-31T07:55:40;14.20;99.90
20750;DHT22;10535;50.664;4.564;2022-10-31T07:58:17;14.10;99.90
20750;DHT22;10535;50.664;4.564;2022-10-31T08:00:44;14.20;99.90
20750;DHT22;10535;50.664;4.564;2022-10-31T08:03:14;14.20;99.90
20750;DHT22;10535;50.664;4.564;2022-10-31T08:05:44;14.20;99.90
20750;DHT22;10535;50.664;4.564;2022-10-31T08:08:12;14.20;99.90
20750;DHT22;10535;50.664;4.564;2022-10-31T08:10:45;14.30;99.90
20750;DHT22;10535;50.664;4.564;2022-10-31T08:13:30;14.40;99.90
20750;DHT22;10535;50.664;4.564;2022-10-31T08:16:23;14.40;99.90
20750;DHT22;10535;50.664;4.564;2022-10-31T08:19:03;14.50;99.90
20750;DHT22;10535;50.664;4.564;2022-10-31T08:21:32;14.60;99.90
20750;DHT22;10535;50.664;4.564;2022-10-31T08:24:10;14.60;99.90
20750;DHT22;10535;50.664;4.564;2022-10-31T08:26:37;14.80;99.90
20750;DHT22;10535;50.664;4.564;2022-10-31T08:29:03;14.90;99.90
20750;DHT22;10535;50.664;4.564;2022-10-31T08:31:29;14.90;99.90
20750;DHT22;10535;50.664;4.564;2022-10-31T08:33:55;15.10;99.90
20750;DHT22;10535;50.664;4.564;2022-10-31T08:36:22;15.20;99.90
20750;DHT22;10535;50.664;4.564;2022-10-31T08:38:48;15.30;99.90
20750;DHT22;10535;50.664;4.564;2022-10-31T08:41:21;15.30;99.90
20750;DHT22;10535;50.664;4.564;2022-10-31T08:43:47;15.30;99.90
20750;DHT22;10535;50.664;4.564;2022-10-31T08:46:14;15.40;99.90
20750;DHT22;10535;50.664;4.564;2022-10-31T08:48:39;15.50;99.90
20750;DHT22;10535;50.664;4.564;2022-10-31T08:51:06;15.60;99.90
20750;DHT22;10535;50.664;4.564;2022-10-31T08:53:32;15.60;99.90
20750;DHT22;10535;50.664;4.564;2022-10-31T08:56:00;15.60;99.90
20750;DHT22;10535;50.664;4.564;2022-10-31T08:58:31;15.70;99.90
20750;DHT22;10535;50.664;4.564;2022-10-31T09:01:34;15.70;99.90
20750;DHT22;10535;50.664;4.564;2022-10-31T09:04:03;15.90;99.90
20750;DHT22;10535;50.664;4.564;2022-10-31T09:09:07;16.00;99.90
20750;DHT22;10535;50.664;4.564;2022-10-31T09:12:08;16.00;99.90
20750;DHT22;10535;50.664;4.564;2022-10-31T09:14:36;16.40;99.90
20750;DHT22;10535;50.664;4.564;2022-10-31T09:17:02;16.30;99.90
20750;DHT22;10535;50.664;4.564;2022-10-31T09:19:29;16.50;99.90
20750;DHT22;10535;50.664;4.564;2022-10-31T09:21:55;16.70;99.90
20750;DHT22;10535;50.664;4.564;2022-10-31T09:24:21;16.60;99.90
20750;DHT22;10535;50.664;4.564;2022-10-31T09:26:47;16.70;99.90
20750;DHT22;10535;50.664;4.564;2022-10-31T09:29:13;16.80;99.90
20750;DHT22;10535;50.664;4.564;2022-10-31T09:31:38;16.90;99.90
20750;DHT22;10535;50.664;4.564;2022-10-31T09:34:07;16.90;99.90
20750;DHT22;10535;50.664;4.564;2022-10-31T09:36:39;17.20;99.90
20750;DHT22;10535;50.664;4.564;2022-10-31T09:39:21;17.20;99.90
20750;DHT22;10535;50.664;4.564;2022-10-31T09:42:06;17.20;99.90
20750;DHT22;10535;50.664;4.564;2022-10-31T09:50:13;17.10;99.90
20750;DHT22;10535;50.664;4.564;2022-10-31T09:53:08;17.20;99.90
20750;DHT22;10535;50.664;4.564;2022-10-31T09:55:39;17.30;99.90
20750;DHT22;10535;50.664;4.564;2022-10-31T09:58:18;17.50;99.90
20750;DHT22;10535;50.664;4.564;2022-10-31T10:00:47;17.60;99.90
20750;DHT22;10535;50.664;4.564;2022-10-31T10:03:35;17.70;99.90
20750;DHT22;10535;50.664;4.564;2022-10-31T10:06:22;17.80;99.90
20750;DHT22;10535;50.664;4.564;2022-10-31T10:08:48;17.80;99.90
20750;DHT22;10535;50.664;4.564;2022-10-31T10:16:59;18.10;99.90
20750;DHT22;10535;50.664;4.564;2022-10-31T10:30:59;18.10;99.90
20750;DHT22;10535;50.664;4.564;2022-10-31T10:34:01;18.40;99.90
20750;DHT22;10535;50.664;4.564;2022-10-31T10:37:22;18.50;99.90
20750;DHT22;10535;50.664;4.564;2022-10-31T10:39:54;18.60;99.90
20750;DHT22;10535;50.664;4.564;2022-10-31T10:42:26;18.70;99.90
20750;DHT22;10535;50.664;4.564;2022-10-31T10:45:17;18.80;99.90
20750;DHT22;10535;50.664;4.564;2022-10-31T10:48:19;18.80;99.90
20750;DHT22;10535;50.664;4.564;2022-10-31T10:50:50;18.90;99.90
20750;DHT22;10535;50.664;4.564;2022-10-31T10:53:48;18.90;99.90
20750;DHT22;10535;50.664;4.564;2022-10-31T10:57:00;19.00;99.90
20750;DHT22;10535;50.664;4.564;2022-10-31T10:59:28;19.00;99.90
20750;DHT22;10535;50.664;4.564;2022-10-31T11:01:56;18.90;99.90
20750;DHT22;10535;50.664;4.564;2022-10-31T11:04:31;18.80;99.90
20750;DHT22;10535;50.664;4.564;2022-10-31T11:07:05;18.90;99.90
20750;DHT22;10535;50.664;4.564;2022-10-31T11:09:44;19.10;99.90
20750;DHT22;10535;50.664;4.564;2022-10-31T11:12:20;19.20;99.90
20750;DHT22;10535;50.664;4.564;2022-10-31T11:14:59;19.30;99.90
20750;DHT22;10535;50.664;4.564;2022-10-31T11:17:40;19.30;99.90
20750;DHT22;10535;50.664;4.564;2022-10-31T11:20:33;19.40;99.90
20750;DHT22;10535;50.664;4.564;2022-10-31T11:23:22;19.40;99.90
20750;DHT22;10535;50.664;4.564;2022-10-31T11:25:58;19.40;99.90
20750;DHT22;10535;50.664;4.564;2022-10-31T11:28:28;19.50;99.90
20750;DHT22;10535;50.664;4.564;2022-10-31T11:31:00;19.60;99.90
20750;DHT22;10535;50.664;4.564;2022-10-31T11:33:49;19.40;99.90
20750;DHT22;10535;50.664;4.564;2022-10-31T11:36:32;19.40;99.90
20750;DHT22;10535;50.664;4.564;2022-10-31T11:39:03;19.40;99.90
20750;DHT22;10535;50.664;4.564;2022-10-31T11:41:39;19.50;99.90
20750;DHT22;10535;50.664;4.564;2022-10-31T11:47:00;19.50;99.90
20750;DHT22;10535;50.664;4.564;2022-10-31T11:49:40;19.60;99.90
20750;DHT22;10535;50.664;4.564;2022-10-31T11:52:12;19.60;99.90
20750;DHT22;10535;50.664;4.564;2022-10-31T11:55:17;19.50;99.90
20750;DHT22;10535;50.664;4.564;2022-10-31T11:57:55;19.60;99.90
20750;DHT22;10535;50.664;4.564;2022-10-31T12:02:47;19.70;99.90
20750;DHT22;10535;50.664;4.564;2022-10-31T12:05:26;19.70;99.90
20750;DHT22;10535;50.664;4.564;2022-10-31T12:08:07;19.70;99.90
20750;DHT22;10535;50.664;4.564;2022-10-31T12:17:00;19.60;99.90
20750;DHT22;10535;50.664;4.564;2022-10-31T12:20:00;19.80;99.90
20750;DHT22;10535;50.664;4.564;2022-10-31T12:27:59;20.10;99.90
20750;DHT22;10535;50.664;4.564;2022-10-31T12:30:41;19.90;99.90
20750;DHT22;10535;50.664;4.564;2022-10-31T12:45:07;20.40;99.90
20750;DHT22;10535;50.664;4.564;2022-10-31T12:50:22;20.30;99.90
20750;DHT22;10535;50.664;4.564;2022-10-31T12:53:23;20.20;99.90
20750;DHT22;10535;50.664;4.564;2022-10-31T12:58:54;20.30;99.90
20750;DHT22;10535;50.664;4.564;2022-10-31T13:01:30;20.20;99.90
20750;DHT22;10535;50.664;4.564;2022-10-31T13:07:04;20.20;99.90
20750;DHT22;10535;50.664;4.564;2022-10-31T13:09:39;20.20;99.90
20750;DHT22;10535;50.664;4.564;2022-10-31T13:12:11;20.20;99.90
20750;DHT22;10535;50.664;4.564;2022-10-31T13:14:41;20.20;99.90
20750;DHT22;10535;50.664;4.564;2022-10-31T13:17:18;20.30;99.90
20750;DHT22;10535;50.664;4.564;2022-10-31T13:19:46;20.40;99.90
20750;DHT22;10535;50.664;4.564;2022-10-31T13:22:16;20.30;99.90
20750;DHT22;10535;50.664;4.564;2022-10-31T13:27:51;20.40;99.90
20750;DHT22;10535;50.664;4.564;2022-10-31T13:30:23;20.40;99.90
20750;DHT22;10535;50.664;4.564;2022-10-31T13:33:04;20.50;99.90
20750;DHT22;10535;50.664;4.564;2022-10-31T13:41:27;20.20;99.90
20750;DHT22;10535;50.664;4.564;2022-10-31T13:44:09;20.20;99.90
20750;DHT22;10535;50.664;4.564;2022-10-31T13:46:38;20.00;99.90
20750;DHT22;10535;50.664;4.564;2022-10-31T13:54:45;19.80;99.90
20750;DHT22;10535;50.664;4.564;2022-10-31T13:57:27;19.80;99.90
20750;DHT22;10535;50.664;4.564;2022-10-31T13:59:58;19.80;99.90
20750;DHT22;10535;50.664;4.564;2022-10-31T14:02:30;19.70;99.90
20750;DHT22;10535;50.664;4.564;2022-10-31T14:05:01;19.70;99.90
20750;DHT22;10535;50.664;4.564;2022-10-31T14:07:28;19.70;99.90
20750;DHT22;10535;50.664;4.564;2022-10-31T14:10:19;19.80;99.90
20750;DHT22;10535;50.664;4.564;2022-10-31T14:12:46;19.70;99.90
20750;DHT22;10535;50.664;4.564;2022-10-31T14:15:21;19.70;99.90
20750;DHT22;10535;50.664;4.564;2022-10-31T14:17:51;19.70;99.90
20750;DHT22;10535;50.664;4.564;2022-10-31T14:22:43;19.60;99.90
20750;DHT22;10535;50.664;4.564;2022-10-31T14:27:51;19.60;99.90
20750;DHT22;10535;50.664;4.564;2022-10-31T14:30:20;19.50;99.90
20750;DHT22;10535;50.664;4.564;2022-10-31T14:33:16;19.40;99.90
20750;DHT22;10535;50.664;4.564;2022-10-31T14:39:02;19.40;99.90
20750;DHT22;10535;50.664;4.564;2022-10-31T14:41:47;19.60;99.90
20750;DHT22;10535;50.664;4.564;2022-10-31T14:47:12;19.80;99.90
20750;DHT22;10535;50.664;4.564;2022-10-31T14:52:32;19.90;99.90
20750;DHT22;10535;50.664;4.564;2022-10-31T14:55:00;19.80;99.90
20750;DHT22;10535;50.664;4.564;2022-10-31T14:57:33;19.80;99.90
20750;DHT22;10535;50.664;4.564;2022-10-31T15:00:16;19.80;99.90
20750;DHT22;10535;50.664;4.564;2022-10-31T15:05:21;19.70;99.90
20750;DHT22;10535;50.664;4.564;2022-10-31T15:07:57;19.60;99.90
20750;DHT22;10535;50.664;4.564;2022-10-31T15:10:26;19.50;99.90
20750;DHT22;10535;50.664;4.564;2022-10-31T15:12:54;19.50;99.90
20750;DHT22;10535;50.664;4.564;2022-10-31T15:15:25;19.60;99.90
20750;DHT22;10535;50.664;4.564;2022-10-31T15:18:03;19.60;99.90
20750;DHT22;10535;50.664;4.564;2022-10-31T15:20:38;19.40;99.90
20750;DHT22;10535;50.664;4.564;2022-10-31T15:23:26;19.40;99.90
20750;DHT22;10535;50.664;4.564;2022-10-31T15:26:03;19.20;99.90
20750;DHT22;10535;50.664;4.564;2022-10-31T15:28:29;19.20;99.90
20750;DHT22;10535;50.664;4.564;2022-10-31T15:31:01;19.10;99.90
20750;DHT22;10535;50.664;4.564;2022-10-31T15:33:39;19.10;99.90
20750;DHT22;10535;50.664;4.564;2022-10-31T15:36:05;18.80;99.90
20750;DHT22;10535;50.664;4.564;2022-10-31T15:38:31;18.70;99.90
20750;DHT22;10535;50.664;4.564;2022-10-31T15:41:01;18.80;99.90
20750;DHT22;10535;50.664;4.564;2022-10-31T15:43:37;18.70;99.90
20750;DHT22;10535;50.664;4.564;2022-10-31T15:46:07;18.60;99.90
20750;DHT22;10535;50.664;4.564;2022-10-31T15:48:34;18.70;99.90
20750;DHT22;10535;50.664;4.564;2022-10-31T15:51:00;18.60;99.90
20750;DHT22;10535;50.664;4.564;2022-10-31T15:53:43;18.50;99.90
20750;DHT22;10535;50.664;4.564;2022-10-31T15:56:13;18.40;99.90
20750;DHT22;10535;50.664;4.564;2022-10-31T15:58:47;18.30;99.90
20750;DHT22;10535;50.664;4.564;2022-10-31T16:01:31;18.20;99.90
20750;DHT22;10535;50.664;4.564;2022-10-31T16:04:02;18.30;99.90
20750;DHT22;10535;50.664;4.564;2022-10-31T16:06:28;18.20;99.90
20750;DHT22;10535;50.664;4.564;2022-10-31T16:08:54;18.30;99.90
20750;DHT22;10535;50.664;4.564;2022-10-31T16:16:31;18.10;99.90
20750;DHT22;10535;50.664;4.564;2022-10-31T16:18:59;18.00;99.90
20750;DHT22;10535;50.664;4.564;2022-10-31T16:21:28;17.90;99.90
20750;DHT22;10535;50.664;4.564;2022-10-31T16:24:10;17.90;99.90
20750;DHT22;10535;50.664;4.564;2022-10-31T16:26:40;17.80;99.90
20750;DHT22;10535;50.664;4.564;2022-10-31T16:37:41;17.50;99.90
20750;DHT22;10535;50.664;4.564;2022-10-31T16:40:11;17.50;99.90
20750;DHT22;10535;50.664;4.564;2022-10-31T16:42:42;17.40;99.90
20750;DHT22;10535;50.664;4.564;2022-10-31T16:45:17;17.40;99.90
20750;DHT22;10535;50.664;4.564;2022-10-31T16:47:45;17.20;99.90
20750;DHT22;10535;50.664;4.564;2022-10-31T16:50:13;17.00;99.90
20750;DHT22;10535;50.664;4.564;2022-10-31T16:52:39;16.90;99.90
20750;DHT22;10535;50.664;4.564;2022-10-31T16:55:05;16.90;99.90
20750;DHT22;10535;50.664;4.564;2022-10-31T16:57:31;16.70;99.90
20750;DHT22;10535;50.664;4.564;2022-10-31T16:59:57;16.50;99.90
20750;DHT22;10535;50.664;4.564;2022-10-31T17:02:23;16.60;99.90
20750;DHT22;10535;50.664;4.564;2022-10-31T17:04:49;16.50;99.90
20750;DHT22;10535;50.664;4.564;2022-10-31T17:07:14;16.60;99.90
20750;DHT22;10535;50.664;4.564;2022-10-31T17:09:40;16.50;99.90
20750;DHT22;10535;50.664;4.564;2022-10-31T17:12:09;16.40;99.90
20750;DHT22;10535;50.664;4.564;2022-10-31T17:14:39;16.40;99.90
20750;DHT22;10535;50.664;4.564;2022-10-31T17:17:06;16.30;99.90
20750;DHT22;10535;50.664;4.564;2022-10-31T17:19:32;16.30;99.90
20750;DHT22;10535;50.664;4.564;2022-10-31T17:22:01;16.20;99.90
20750;DHT22;10535;50.664;4.564;2022-10-31T17:24:26;16.20;99.90
20750;DHT22;10535;50.664;4.564;2022-10-31T17:26:52;16.20;99.90
20750;DHT22;10535;50.664;4.564;2022-10-31T17:29:18;16.20;99.90
20750;DHT22;10535;50.664;4.564;2022-10-31T17:31:43;16.30;99.90
20750;DHT22;10535;50.664;4.564;2022-10-31T17:34:09;16.30;99.90
20750;DHT22;10535;50.664;4.564;2022-10-31T17:36:35;16.30;99.90
20750;DHT22;10535;50.664;4.564;2022-10-31T17:39:01;16.30;99.90
20750;DHT22;10535;50.664;4.564;2022-10-31T17:41:27;16.30;99.90
20750;DHT22;10535;50.664;4.564;2022-10-31T17:43:58;16.30;99.90
20750;DHT22;10535;50.664;4.564;2022-10-31T17:46:23;16.30;99.90
20750;DHT22;10535;50.664;4.564;2022-10-31T17:48:50;16.30;99.90
20750;DHT22;10535;50.664;4.564;2022-10-31T17:51:16;16.30;99.90
20750;DHT22;10535;50.664;4.564;2022-10-31T17:53:42;16.30;99.90
20750;DHT22;10535;50.664;4.564;2022-10-31T17:56:08;16.20;99.90
20750;DHT22;10535;50.664;4.564;2022-10-31T17:58:35;16.10;99.90
20750;DHT22;10535;50.664;4.564;2022-10-31T18:01:07;16.00;99.90
20750;DHT22;10535;50.664;4.564;2022-10-31T18:03:34;16.20;99.90